createdAt,value
2023-03-04T00:00:02.307Z,4.82
2023-03-04T00:02:35.048Z,4.76
2023-03-04T00:05:09.753Z,4.72
2023-03-04T00:07:42.452Z,4.66
2023-03-04T00:10:15.176Z,4.62
2023-03-04T00:12:47.868Z,4.57
2023-03-04T00:15:20.544Z,4.54
2023-03-04T00:17:53.327Z,4.49
2023-03-04T00:20:27.478Z,4.45
2023-03-04T00:23:00.244Z,4.40
2023-03-04T00:25:33.633Z,4.34
2023-03-04T00:28:06.539Z,4.32
2023-03-04T00:30:39.177Z,4.26
2023-03-04T00:33:12.058Z,4.22
2023-03-04T00:35:46.175Z,4.18
2023-03-04T00:38:19.010Z,4.14
2023-03-04T00:40:51.673Z,4.09
2023-03-04T00:43:24.613Z,4.05
2023-03-04T00:45:57.409Z,4.03
2023-03-04T00:48:30.359Z,3.99
2023-03-04T00:51:04.483Z,3.94
2023-03-04T00:53:37.148Z,3.93
2023-03-04T00:56:09.799Z,3.88
2023-03-04T00:58:42.434Z,3.86
2023-03-04T01:01:15.578Z,3.83
2023-03-04T01:03:48.460Z,3.80
2023-03-04T01:06:22.520Z,3.78
2023-03-04T01:08:55.209Z,3.76
2023-03-04T01:11:27.890Z,3.71
2023-03-04T01:14:00.659Z,3.69
2023-03-04T01:16:33.333Z,3.67
2023-03-04T01:19:06.091Z,3.67
2023-03-04T01:21:40.203Z,3.65
2023-03-04T01:24:13.002Z,3.62
2023-03-04T01:26:45.675Z,3.60
2023-03-04T01:29:18.496Z,3.58
2023-03-04T01:31:51.163Z,3.56
2023-03-04T01:34:23.859Z,3.55
2023-03-04T01:36:57.942Z,3.52
2023-03-04T01:39:30.921Z,3.50
2023-03-04T01:42:03.645Z,3.47
2023-03-04T01:44:36.348Z,3.45
2023-03-04T01:47:10.071Z,3.42
2023-03-04T01:49:42.957Z,3.39
2023-03-04T01:52:17.140Z,3.39
2023-03-04T01:54:50.136Z,3.36
2023-03-04T01:57:23.747Z,3.34
2023-03-04T02:00:16.346Z,3.33
2023-03-04T02:02:49.532Z,3.31
2023-03-04T02:05:23.056Z,3.29
2023-03-04T02:07:58.367Z,3.29
2023-03-04T02:10:31.445Z,3.27
2023-03-04T02:13:04.725Z,3.28
2023-03-04T02:15:37.555Z,3.24
2023-03-04T02:18:15.097Z,3.23
2023-03-04T02:20:53.783Z,3.21
2023-03-04T02:23:31.812Z,3.21
2023-03-04T02:26:11.428Z,3.20
2023-03-04T02:28:44.700Z,3.15
2023-03-04T02:31:23.033Z,3.14
2023-03-04T02:33:57.349Z,3.14
2023-03-04T02:36:30.455Z,3.13
2023-03-04T02:39:04.856Z,3.11
2023-03-04T02:41:39.223Z,3.09
2023-03-04T02:44:17.297Z,3.08
2023-03-04T02:46:50.655Z,3.09
2023-03-04T02:49:24.011Z,3.08
2023-03-04T02:52:00.467Z,3.06
2023-03-04T02:54:33.131Z,3.05
2023-03-04T02:57:08.142Z,3.04
2023-03-04T02:59:41.532Z,3.01
2023-03-04T03:02:14.230Z,3.00
2023-03-04T03:04:46.900Z,3.00
2023-03-04T03:07:19.949Z,2.97
2023-03-04T03:09:52.592Z,2.97
2023-03-04T03:12:26.611Z,2.95
2023-03-04T03:14:59.360Z,2.93
2023-03-04T03:17:32.080Z,2.93
2023-03-04T03:20:05.207Z,2.92
2023-03-04T03:22:38.022Z,2.92
2023-03-04T03:25:11.464Z,2.90
2023-03-04T03:27:45.574Z,2.89
2023-03-04T03:30:19.621Z,2.90
2023-03-04T03:32:52.500Z,2.89
2023-03-04T03:35:25.202Z,2.91
2023-03-04T03:37:57.962Z,2.89
2023-03-04T03:40:30.732Z,2.90
2023-03-04T03:43:04.948Z,2.90
2023-03-04T03:45:39.021Z,2.90
2023-03-04T03:48:11.704Z,2.91
2023-03-04T03:50:44.329Z,2.89
2023-03-04T03:53:17.103Z,2.90
2023-03-04T03:55:49.802Z,2.91
2023-03-04T03:58:24.187Z,2.91
2023-03-04T04:00:58.463Z,2.91
2023-03-04T04:03:31.438Z,2.91
2023-03-04T04:06:04.309Z,2.91
2023-03-04T04:08:37.101Z,2.91
2023-03-04T04:11:10.433Z,2.89
2023-03-04T04:13:44.607Z,2.89
2023-03-04T04:16:17.279Z,2.90
2023-03-04T04:18:50.031Z,2.89
2023-03-04T04:21:22.736Z,2.88
2023-03-04T04:23:55.500Z,2.88
2023-03-04T04:26:28.293Z,2.88
2023-03-04T04:29:02.600Z,2.86
2023-03-04T04:31:35.536Z,2.85
2023-03-04T04:34:08.205Z,2.82
2023-03-04T04:36:40.946Z,2.84
2023-03-04T04:39:13.706Z,2.82
2023-03-04T04:41:46.922Z,2.79
2023-03-04T04:44:21.254Z,2.79
2023-03-04T04:46:54.046Z,2.75
2023-03-04T04:49:26.827Z,2.76
2023-03-04T04:51:59.833Z,2.74
2023-03-04T04:54:32.788Z,2.71
2023-03-04T04:57:05.433Z,2.70
2023-03-04T04:59:39.535Z,2.70
2023-03-04T05:02:12.220Z,2.69
2023-03-04T05:04:44.943Z,2.64
2023-03-04T05:07:17.736Z,2.64
2023-03-04T05:09:50.459Z,2.62
2023-03-04T05:12:23.174Z,2.60
2023-03-04T05:14:57.566Z,2.59
2023-03-04T05:17:30.226Z,2.57
2023-03-04T05:20:04.362Z,2.57
2023-03-04T05:22:37.104Z,2.54
2023-03-04T05:25:10.727Z,2.52
2023-03-04T05:27:43.461Z,2.52
2023-03-04T05:30:17.836Z,2.50
2023-03-04T05:32:50.539Z,2.49
2023-03-04T05:35:23.236Z,2.50
2023-03-04T05:37:56.119Z,2.51
2023-03-04T05:40:28.883Z,2.51
2023-03-04T05:43:01.543Z,2.53
2023-03-04T05:45:35.660Z,2.56
2023-03-04T05:48:09.370Z,2.61
2023-03-04T05:50:42.123Z,2.65
2023-03-04T05:53:15.110Z,2.70
2023-03-04T05:55:48.380Z,2.77
2023-03-04T05:58:21.191Z,2.86
2023-03-04T06:00:55.392Z,2.91
2023-03-04T06:03:28.105Z,2.97
2023-03-04T06:06:00.896Z,3.02
2023-03-04T06:08:33.731Z,3.08
2023-03-04T06:11:06.863Z,3.15
2023-03-04T06:13:40.232Z,3.18
2023-03-04T06:16:14.420Z,3.24
2023-03-04T06:18:47.146Z,3.28
2023-03-04T06:21:19.886Z,3.33
2023-03-04T06:23:52.590Z,3.40
2023-03-04T06:26:25.325Z,3.47
2023-03-04T06:28:58.012Z,3.55
2023-03-04T06:31:32.147Z,3.63
2023-03-04T06:34:04.846Z,3.70
2023-03-04T06:36:37.602Z,3.79
2023-03-04T06:39:10.331Z,3.90
2023-03-04T06:41:43.055Z,3.97
2023-03-04T06:44:15.846Z,4.07
2023-03-04T06:46:50.209Z,4.17
2023-03-04T06:49:22.881Z,4.28
2023-03-04T06:51:55.539Z,4.39
2023-03-04T06:54:28.289Z,4.48
2023-03-04T06:57:01.041Z,4.57
2023-03-04T06:59:33.877Z,4.69
2023-03-04T07:02:08.042Z,4.79
2023-03-04T07:04:41.214Z,4.88
2023-03-04T07:07:13.984Z,4.97
2023-03-04T07:09:46.650Z,5.06
2023-03-04T07:12:19.547Z,5.18
2023-03-04T07:14:52.202Z,5.25
2023-03-04T07:17:26.407Z,5.34
2023-03-04T07:19:59.033Z,5.44
2023-03-04T07:22:31.797Z,5.51
2023-03-04T07:25:04.871Z,5.58
2023-03-04T07:27:38.684Z,5.67
2023-03-04T07:30:12.255Z,5.76
2023-03-04T07:32:46.626Z,5.85
2023-03-04T07:35:19.402Z,5.92
2023-03-04T07:37:52.137Z,6.01
2023-03-04T07:40:25.018Z,6.10
2023-03-04T07:42:57.809Z,6.19
2023-03-04T07:45:30.570Z,6.26
2023-03-04T07:48:04.785Z,6.34
2023-03-04T07:50:37.545Z,6.45
2023-03-04T07:53:10.386Z,6.52
2023-03-04T07:55:43.035Z,6.63
2023-03-04T07:58:20.005Z,6.72
2023-03-04T08:00:52.798Z,6.82
2023-03-04T08:03:26.843Z,6.92
2023-03-04T08:05:59.574Z,7.03
2023-03-04T08:08:32.243Z,7.14
2023-03-04T08:11:05.559Z,7.26
2023-03-04T08:13:38.442Z,7.35
2023-03-04T08:16:13.217Z,7.44
2023-03-04T08:18:49.208Z,7.52
2023-03-04T08:21:22.959Z,7.64
2023-03-04T08:23:56.085Z,7.71
2023-03-04T08:26:31.458Z,7.80
2023-03-04T08:29:05.806Z,7.88
2023-03-04T08:31:39.448Z,7.99
2023-03-04T08:34:14.811Z,8.06
2023-03-04T08:36:47.612Z,8.14
2023-03-04T08:39:20.801Z,8.21
2023-03-04T08:41:53.584Z,8.27
2023-03-04T08:44:26.847Z,8.32
2023-03-04T08:46:59.927Z,8.35
2023-03-04T08:49:33.970Z,8.38
2023-03-04T08:52:06.759Z,8.41
2023-03-04T08:54:39.437Z,8.41
2023-03-04T08:57:12.079Z,8.41
2023-03-04T08:59:44.788Z,8.42
2023-03-04T09:02:17.915Z,8.45
2023-03-04T09:04:51.938Z,8.44
2023-03-04T09:07:25.340Z,8.46
2023-03-04T09:09:58.068Z,8.47
2023-03-04T09:12:30.785Z,8.52
2023-03-04T09:15:11.400Z,8.55
2023-03-04T09:17:44.611Z,8.62
2023-03-04T09:20:19.779Z,8.67
2023-03-04T09:22:52.507Z,8.73
2023-03-04T09:25:25.200Z,8.78
2023-03-04T09:27:57.914Z,8.84
2023-03-04T09:30:30.704Z,8.88
2023-03-04T09:33:03.546Z,8.93
2023-03-04T09:35:37.708Z,8.97
2023-03-04T09:38:10.532Z,9.01
2023-03-04T09:40:44.377Z,9.05
2023-03-04T09:43:20.770Z,9.11
2023-03-04T09:45:56.599Z,9.14
2023-03-04T09:48:31.323Z,9.20
2023-03-04T09:51:12.231Z,9.26
2023-03-04T09:53:48.770Z,9.31
2023-03-04T09:56:21.525Z,9.37
2023-03-04T09:59:01.094Z,9.41
2023-03-04T10:01:37.371Z,9.48
2023-03-04T10:04:14.187Z,9.52
2023-03-04T10:06:54.393Z,9.58
2023-03-04T10:09:29.722Z,9.64
2023-03-04T10:12:04.140Z,9.71
2023-03-04T10:14:39.054Z,9.77
2023-03-04T10:17:14.966Z,9.84
2023-03-04T10:19:56.838Z,9.90
2023-03-04T10:22:35.695Z,9.96
2023-03-04T10:25:26.938Z,10.01
2023-03-04T10:28:02.571Z,10.09
2023-03-04T10:30:40.401Z,10.14
2023-03-04T10:33:14.113Z,10.20
2023-03-04T10:35:49.610Z,10.26
2023-03-04T10:38:24.703Z,10.30
2023-03-04T10:40:59.137Z,10.37
2023-03-04T10:43:31.882Z,10.41
2023-03-04T10:46:05.061Z,10.45
2023-03-04T10:48:39.186Z,10.53
2023-03-04T10:51:13.862Z,10.56
2023-03-04T10:53:48.643Z,10.59
2023-03-04T10:56:35.793Z,10.66
2023-03-04T10:59:32.520Z,10.70
2023-03-04T11:02:15.409Z,10.75
2023-03-04T11:04:53.544Z,10.80
2023-03-04T11:07:27.414Z,10.85
2023-03-04T11:10:10.551Z,10.90
2023-03-04T11:12:43.551Z,10.94
2023-03-04T11:15:27.273Z,11.00
2023-03-04T11:18:02.543Z,11.05
2023-03-04T11:20:38.143Z,11.07
2023-03-04T11:23:13.973Z,11.11
2023-03-04T11:25:51.051Z,11.14
2023-03-04T11:28:26.092Z,11.17
2023-03-04T11:31:00.527Z,11.20
2023-03-04T11:33:37.497Z,11.22
2023-03-04T11:36:22.146Z,11.25
2023-03-04T11:38:55.286Z,11.27
2023-03-04T11:41:32.223Z,11.30
2023-03-04T11:44:07.061Z,11.33
2023-03-04T11:47:00.765Z,11.34
2023-03-04T11:49:49.008Z,11.37
2023-03-04T11:52:28.851Z,11.39
2023-03-04T11:55:07.519Z,11.42
2023-03-04T11:57:46.917Z,11.46
2023-03-04T12:00:32.051Z,11.49
2023-03-04T12:03:16.192Z,11.54
2023-03-04T12:05:53.856Z,11.57
2023-03-04T12:08:34.198Z,11.62
2023-03-04T12:11:10.414Z,11.67
2023-03-04T12:13:57.910Z,11.70
2023-03-04T12:16:40.282Z,11.76
2023-03-04T12:19:19.376Z,11.82
2023-03-04T12:22:00.966Z,11.86
2023-03-04T12:24:43.308Z,11.90
2023-03-04T12:27:22.468Z,11.95
2023-03-04T12:29:58.471Z,11.98
2023-03-04T12:32:37.391Z,12.01
2023-03-04T12:35:25.512Z,12.03
2023-03-04T12:38:13.356Z,12.05
2023-03-04T12:40:49.763Z,12.06
2023-03-04T12:43:43.428Z,12.06
2023-03-04T12:46:22.792Z,12.07
2023-03-04T12:49:04.734Z,12.06
2023-03-04T12:51:41.774Z,12.06
2023-03-04T12:54:19.799Z,12.08
2023-03-04T12:56:55.040Z,12.07
2023-03-04T12:59:30.171Z,12.08
2023-03-04T13:02:11.186Z,12.11
2023-03-04T13:04:53.612Z,12.12
2023-03-04T13:07:31.115Z,12.16
2023-03-04T13:10:08.682Z,12.15
2023-03-04T13:12:48.592Z,12.16
2023-03-04T13:15:38.055Z,12.18
2023-03-04T13:18:31.772Z,12.18
2023-03-04T13:21:17.395Z,12.17
2023-03-04T13:23:50.445Z,12.18
2023-03-04T13:26:31.024Z,12.18
2023-03-04T13:29:24.789Z,12.20
2023-03-04T13:32:02.081Z,12.20
2023-03-04T13:34:45.824Z,12.20
2023-03-04T13:37:30.544Z,12.20
2023-03-04T13:40:33.309Z,12.19
2023-03-04T13:43:26.839Z,12.19
2023-03-04T13:45:59.485Z,12.18
2023-03-04T13:48:36.433Z,12.15
2023-03-04T13:51:28.653Z,12.16
2023-03-04T13:54:14.201Z,12.16
2023-03-04T13:56:47.845Z,12.16
2023-03-04T13:59:27.622Z,12.19
2023-03-04T14:02:02.140Z,12.16
2023-03-04T14:04:36.293Z,12.18
2023-03-04T14:07:20.121Z,12.18
2023-03-04T14:10:10.501Z,12.20
2023-03-04T14:12:46.073Z,12.19
2023-03-04T14:15:23.301Z,12.18
2023-03-04T14:17:57.282Z,12.19
2023-03-04T14:20:31.110Z,12.17
2023-03-04T14:23:05.025Z,12.16
2023-03-04T14:25:38.459Z,12.18
2023-03-04T14:28:12.934Z,12.19
2023-03-04T14:30:52.345Z,12.21
2023-03-04T14:33:26.696Z,12.20
2023-03-04T14:36:00.451Z,12.21
2023-03-04T14:38:34.890Z,12.23
2023-03-04T14:41:08.992Z,12.25
2023-03-04T14:43:48.271Z,12.26
2023-03-04T14:46:21.628Z,12.26
2023-03-04T14:48:55.042Z,12.27
2023-03-04T14:51:37.837Z,12.26
2023-03-04T14:54:27.657Z,12.29
2023-03-04T14:57:02.580Z,12.27
2023-03-04T14:59:37.486Z,12.27
2023-03-04T15:02:19.800Z,12.29
2023-03-04T15:04:52.562Z,12.28
2023-03-04T15:07:29.061Z,12.31
2023-03-04T15:10:02.749Z,12.30
2023-03-04T15:12:36.609Z,12.30
2023-03-04T15:15:24.159Z,12.29
2023-03-04T15:18:01.609Z,12.28
2023-03-04T15:20:34.436Z,12.29
2023-03-04T15:23:09.935Z,12.27
2023-03-04T15:25:42.671Z,12.27
2023-03-04T15:28:18.003Z,12.26
2023-03-04T15:30:51.124Z,12.22
2023-03-04T15:33:26.008Z,12.21
2023-03-04T15:36:01.125Z,12.18
2023-03-04T15:38:33.836Z,12.15
2023-03-04T15:41:06.690Z,12.11
2023-03-04T15:43:39.688Z,12.06
2023-03-04T15:46:12.678Z,12.02
2023-03-04T15:48:46.880Z,11.98
2023-03-04T15:51:22.206Z,11.95
2023-03-04T15:53:55.623Z,11.90
2023-03-04T15:56:29.812Z,11.86
2023-03-04T15:59:04.738Z,11.83
2023-03-04T16:01:37.685Z,11.78
2023-03-04T16:04:12.859Z,11.74
2023-03-04T16:06:46.732Z,11.71
2023-03-04T16:09:19.821Z,11.65
2023-03-04T16:11:56.591Z,11.60
2023-03-04T16:14:29.281Z,11.58
2023-03-04T16:17:02.177Z,11.51
2023-03-04T16:19:36.641Z,11.49
2023-03-04T16:22:10.613Z,11.46
2023-03-04T16:24:43.445Z,11.44
2023-03-04T16:27:17.941Z,11.42
2023-03-04T16:29:51.315Z,11.40
2023-03-04T16:32:24.700Z,11.39
2023-03-04T16:34:58.986Z,11.38
2023-03-04T16:37:31.692Z,11.33
2023-03-04T16:40:05.084Z,11.33
2023-03-04T16:42:37.743Z,11.31
2023-03-04T16:45:13.420Z,11.29
2023-03-04T16:47:46.265Z,11.26
2023-03-04T16:50:21.836Z,11.23
2023-03-04T16:52:55.566Z,11.19
2023-03-04T16:55:29.151Z,11.14
2023-03-04T16:58:01.856Z,11.08
2023-03-04T17:00:34.581Z,11.00
2023-03-04T17:03:07.344Z,10.94
2023-03-04T17:05:41.477Z,10.84
2023-03-04T17:08:14.140Z,10.75
2023-03-04T17:10:46.955Z,10.68
2023-03-04T17:13:19.620Z,10.55
2023-03-04T17:15:52.313Z,10.45
2023-03-04T17:18:25.478Z,10.33
2023-03-04T17:21:04.837Z,10.23
2023-03-04T17:23:37.547Z,10.12
2023-03-04T17:26:10.482Z,10.00
2023-03-04T17:28:43.562Z,9.92
2023-03-04T17:31:17.544Z,9.82
2023-03-04T17:33:50.398Z,9.74
2023-03-04T17:36:24.523Z,9.64
2023-03-04T17:38:57.266Z,9.55
2023-03-04T17:41:30.344Z,9.48
2023-03-04T17:44:03.110Z,9.39
2023-03-04T17:46:35.960Z,9.30
2023-03-04T17:49:08.690Z,9.20
2023-03-04T17:51:42.874Z,9.11
2023-03-04T17:54:15.588Z,9.00
2023-03-04T17:56:48.246Z,8.93
2023-03-04T17:59:20.981Z,8.81
2023-03-04T18:01:54.387Z,8.70
2023-03-04T18:04:27.101Z,8.60
2023-03-04T18:07:01.191Z,8.50
2023-03-04T18:09:33.964Z,8.43
2023-03-04T18:12:07.108Z,8.33
2023-03-04T18:14:39.812Z,8.24
2023-03-04T18:17:12.803Z,8.15
2023-03-04T18:19:45.433Z,8.06
2023-03-04T18:22:19.567Z,7.96
2023-03-04T18:24:52.276Z,7.88
2023-03-04T18:27:25.058Z,7.80
2023-03-04T18:29:58.912Z,7.73
2023-03-04T18:32:45.541Z,7.64
2023-03-04T18:35:23.910Z,7.57
2023-03-04T18:37:58.291Z,7.51
2023-03-04T18:40:31.736Z,7.45
2023-03-04T18:43:04.739Z,7.41
2023-03-04T18:45:37.570Z,7.33
2023-03-04T18:48:10.396Z,7.28
2023-03-04T18:50:43.132Z,7.23
2023-03-04T18:53:17.344Z,7.15
2023-03-04T18:55:50.020Z,7.11
2023-03-04T18:58:22.745Z,7.03
2023-03-04T19:00:55.738Z,6.96
2023-03-04T19:03:30.240Z,6.90
2023-03-04T19:06:02.931Z,6.84
2023-03-04T19:08:37.084Z,6.80
2023-03-04T19:11:09.832Z,6.73
2023-03-04T19:13:42.602Z,6.68
2023-03-04T19:16:15.717Z,6.61
2023-03-04T19:18:48.462Z,6.53
2023-03-04T19:21:21.208Z,6.49
2023-03-04T19:23:55.445Z,6.42
2023-03-04T19:26:28.237Z,6.36
2023-03-04T19:29:00.965Z,6.30
2023-03-04T19:31:33.705Z,6.25
2023-03-04T19:34:06.435Z,6.20
2023-03-04T19:36:39.209Z,6.19
2023-03-04T19:39:15.650Z,6.14
2023-03-04T19:41:48.391Z,6.11
2023-03-04T19:44:21.457Z,6.12
2023-03-04T19:46:54.130Z,6.12
2023-03-04T19:49:26.942Z,6.15
2023-03-04T19:51:59.780Z,6.18
2023-03-04T19:54:34.708Z,6.23
2023-03-04T19:57:07.372Z,6.29
2023-03-04T19:59:40.095Z,6.34
2023-03-04T20:02:12.837Z,6.43
2023-03-04T20:04:45.971Z,6.52
2023-03-04T20:07:19.111Z,6.59
2023-03-04T20:09:55.330Z,6.67
2023-03-04T20:12:28.095Z,6.76
2023-03-04T20:15:00.896Z,6.83
2023-03-04T20:17:33.723Z,6.91
2023-03-04T20:20:10.660Z,6.96
2023-03-04T20:22:43.393Z,7.04
2023-03-04T20:25:17.504Z,7.10
2023-03-04T20:27:50.243Z,7.15
2023-03-04T20:30:23.074Z,7.19
2023-03-04T20:32:55.747Z,7.26
2023-03-04T20:35:28.849Z,7.32
2023-03-04T20:38:02.378Z,7.40
2023-03-04T20:40:37.074Z,7.45
2023-03-04T20:43:09.787Z,7.55
2023-03-04T20:45:42.558Z,7.60
2023-03-04T20:48:15.264Z,7.66
2023-03-04T20:50:48.073Z,7.70
2023-03-04T20:53:20.775Z,7.76
2023-03-04T20:55:54.985Z,7.79
2023-03-04T20:58:27.619Z,7.84
2023-03-04T21:01:00.365Z,7.85
2023-03-04T21:03:33.106Z,7.88
2023-03-04T21:06:06.797Z,7.89
2023-03-04T21:08:39.739Z,7.88
2023-03-04T21:11:14.509Z,7.87
2023-03-04T21:13:53.862Z,7.87
2023-03-04T21:16:27.695Z,7.84
2023-03-04T21:19:00.785Z,7.85
2023-03-04T21:21:33.474Z,7.83
2023-03-04T21:24:06.347Z,7.83
2023-03-04T21:26:40.611Z,7.82
2023-03-04T21:29:13.493Z,7.81
2023-03-04T21:31:47.862Z,7.78
2023-03-04T21:34:22.417Z,7.77
2023-03-04T21:36:55.131Z,7.74
2023-03-04T21:39:27.972Z,7.72
2023-03-04T21:42:02.053Z,7.66
2023-03-04T21:44:48.633Z,7.63
2023-03-04T21:47:22.659Z,7.56
2023-03-04T21:49:55.373Z,7.50
2023-03-04T21:52:28.114Z,7.46
2023-03-04T21:55:00.814Z,7.37
2023-03-04T21:57:34.930Z,7.29
2023-03-04T22:00:08.709Z,7.20
2023-03-04T22:02:41.454Z,7.13
2023-03-04T22:05:14.244Z,7.05
2023-03-04T22:07:47.488Z,6.94
2023-03-04T22:10:20.411Z,6.87
2023-03-04T22:12:54.547Z,6.76
2023-03-04T22:15:27.309Z,6.70
2023-03-04T22:18:00.324Z,6.59
2023-03-04T22:20:34.584Z,6.52
2023-03-04T22:23:07.852Z,6.44
2023-03-04T22:25:41.386Z,6.38
2023-03-04T22:28:15.656Z,6.31
2023-03-04T22:30:48.385Z,6.27
2023-03-04T22:33:21.089Z,6.23
2023-03-04T22:35:53.886Z,6.21
2023-03-04T22:38:26.633Z,6.20
2023-03-04T22:40:59.344Z,6.19
2023-03-04T22:43:33.622Z,6.20
2023-03-04T22:46:12.330Z,6.18
2023-03-04T22:48:45.085Z,6.21
2023-03-04T22:51:18.266Z,6.20
2023-03-04T22:53:51.562Z,6.21
2023-03-04T22:56:24.221Z,6.18
2023-03-04T22:58:58.341Z,6.19
2023-03-04T23:01:31.118Z,6.18
2023-03-04T23:04:03.937Z,6.18
2023-03-04T23:06:37.663Z,6.18
2023-03-04T23:09:10.744Z,6.19
2023-03-04T23:11:43.821Z,6.20
2023-03-04T23:14:18.019Z,6.22
2023-03-04T23:16:50.735Z,6.23
2023-03-04T23:19:23.494Z,6.24
2023-03-04T23:21:56.167Z,6.28
2023-03-04T23:24:29.513Z,6.30
2023-03-04T23:27:02.147Z,6.32
2023-03-04T23:29:36.343Z,6.33
2023-03-04T23:32:09.407Z,6.33
2023-03-04T23:34:42.234Z,6.35
2023-03-04T23:37:14.912Z,6.36
2023-03-04T23:39:47.670Z,6.35
2023-03-04T23:42:20.362Z,6.32
2023-03-04T23:44:54.751Z,6.31
2023-03-04T23:47:27.710Z,6.31
2023-03-04T23:50:00.455Z,6.30
2023-03-04T23:52:33.529Z,6.30
2023-03-04T23:55:07.076Z,6.29
2023-03-04T23:57:39.866Z,6.29
